createdAt,value
2018-06-02T00:02:19.465Z,15.83
2018-06-02T00:04:47.275Z,15.80
2018-06-02T00:07:15.633Z,15.76
2018-06-02T00:09:43.895Z,15.71
2018-06-02T00:12:12.232Z,15.66
2018-06-02T00:14:40.547Z,15.59
2018-06-02T00:17:09.359Z,15.49
2018-06-02T00:19:36.973Z,15.41
2018-06-02T00:22:05.265Z,15.33
2018-06-02T00:24:32.836Z,15.27
2018-06-02T00:27:00.460Z,15.24
2018-06-02T00:29:28.096Z,15.22
2018-06-02T00:31:55.850Z,15.16
2018-06-02T00:34:23.751Z,15.15
2018-06-02T00:36:51.473Z,15.12
2018-06-02T00:39:19.120Z,15.07
2018-06-02T00:41:47.090Z,15.03
2018-06-02T00:44:14.950Z,14.99
2018-06-02T00:46:42.616Z,14.96
2018-06-02T00:49:10.244Z,14.94
2018-06-02T00:51:37.942Z,14.91
2018-06-02T00:54:05.579Z,14.89
2018-06-02T00:56:33.249Z,14.86
2018-06-02T00:59:00.979Z,14.84
2018-06-02T01:01:28.773Z,14.83
2018-06-02T01:03:56.409Z,14.80
2018-06-02T01:06:24.909Z,14.78
2018-06-02T01:08:53.409Z,14.75
2018-06-02T01:11:21.057Z,14.73
2018-06-02T01:13:49.655Z,14.73
2018-06-02T01:16:18.072Z,14.71
2018-06-02T01:18:46.365Z,14.67
2018-06-02T01:21:14.959Z,14.62
2018-06-02T01:23:43.406Z,14.55
2018-06-02T01:26:11.121Z,14.48
2018-06-02T01:28:38.761Z,14.41
2018-06-02T01:31:06.547Z,14.38
2018-06-02T01:33:34.164Z,14.32
2018-06-02T01:36:01.922Z,14.25
2018-06-02T01:38:29.846Z,14.23
2018-06-02T01:40:57.552Z,14.20
2018-06-02T01:43:25.680Z,14.18
2018-06-02T01:45:53.516Z,14.18
2018-06-02T01:48:21.305Z,14.16
2018-06-02T01:50:50.267Z,14.14
2018-06-02T01:53:18.830Z,14.12
2018-06-02T01:55:48.184Z,14.13
2018-06-02T01:58:17.284Z,14.12
2018-06-02T02:00:44.920Z,14.10
2018-06-02T02:03:12.604Z,14.07
2018-06-02T02:05:40.880Z,14.05
2018-06-02T02:08:09.057Z,14.03
2018-06-02T02:10:36.715Z,14.02
2018-06-02T02:13:05.121Z,14.00
2018-06-02T02:15:33.634Z,13.99
2018-06-02T02:18:01.880Z,13.96
2018-06-02T02:20:29.884Z,13.93
2018-06-02T02:22:58.094Z,13.94
2018-06-02T02:25:25.654Z,13.93
2018-06-02T02:27:53.213Z,13.90
2018-06-02T02:30:20.801Z,13.88
2018-06-02T02:32:48.380Z,13.88
2018-06-02T02:35:16.072Z,13.90
2018-06-02T02:37:43.709Z,13.90
2018-06-02T02:40:11.284Z,13.91
2018-06-02T02:42:38.857Z,13.90
2018-06-02T02:45:06.462Z,13.93
2018-06-02T02:47:34.100Z,13.95
2018-06-02T02:50:01.787Z,13.98
2018-06-02T02:52:29.473Z,14.32
2018-06-02T02:54:59.657Z,15.00
2018-06-02T02:57:27.970Z,15.73
2018-06-02T02:59:55.582Z,16.45
2018-06-02T03:02:23.143Z,17.18
2018-06-02T03:04:50.754Z,17.82
2018-06-02T03:07:19.112Z,18.37
2018-06-02T03:09:47.732Z,18.97
2018-06-02T03:12:15.359Z,19.57
2018-06-02T03:14:43.611Z,20.09
2018-06-02T03:17:11.191Z,20.58
2018-06-02T03:19:39.353Z,21.02
2018-06-02T03:22:07.743Z,21.34
2018-06-02T03:24:35.318Z,21.79
2018-06-02T03:27:02.925Z,22.20
2018-06-02T03:29:31.460Z,22.45
2018-06-02T03:31:59.017Z,22.63
2018-06-02T03:34:26.588Z,22.88
2018-06-02T03:36:54.180Z,22.95
2018-06-02T03:39:21.745Z,23.35
2018-06-02T03:41:49.304Z,23.69
2018-06-02T03:44:17.012Z,23.93
2018-06-02T03:46:44.747Z,24.21
2018-06-02T03:49:12.307Z,24.58
2018-06-02T03:51:39.973Z,24.95
2018-06-02T03:54:07.575Z,25.26
2018-06-02T03:56:36.204Z,25.43
2018-06-02T03:59:04.441Z,25.42
2018-06-02T04:01:32.988Z,25.40
2018-06-02T04:04:00.523Z,25.32
2018-06-02T04:06:28.682Z,25.09
2018-06-02T04:08:56.939Z,24.68
2018-06-02T04:11:25.021Z,24.30
2018-06-02T04:13:52.550Z,23.80
2018-06-02T04:16:20.808Z,23.37
2018-06-02T04:18:48.436Z,22.89
2018-06-02T04:21:16.781Z,22.57
2018-06-02T04:23:44.895Z,22.28
2018-06-02T04:26:12.467Z,21.81
2018-06-02T04:28:40.779Z,21.40
2018-06-02T04:31:08.311Z,21.09
2018-06-02T04:33:36.572Z,20.87
2018-06-02T04:36:04.120Z,20.75
2018-06-02T04:38:31.842Z,20.64
2018-06-02T04:40:59.447Z,20.60
2018-06-02T04:43:27.011Z,20.57
2018-06-02T04:45:54.563Z,20.53
2018-06-02T04:48:22.277Z,20.47
2018-06-02T04:50:49.807Z,20.33
2018-06-02T04:53:17.517Z,20.26
2018-06-02T04:55:46.096Z,20.21
2018-06-02T04:58:14.221Z,20.17
2018-06-02T05:00:41.788Z,20.06
2018-06-02T05:03:09.364Z,20.08
2018-06-02T05:05:37.474Z,20.11
2018-06-02T05:08:05.759Z,20.12
2018-06-02T05:10:33.379Z,20.14
2018-06-02T05:13:00.929Z,20.20
2018-06-02T05:15:29.506Z,20.22
2018-06-02T05:17:57.049Z,20.32
2018-06-02T05:20:25.274Z,20.43
2018-06-02T05:22:53.448Z,20.46
2018-06-02T05:25:21.004Z,20.52
2018-06-02T05:27:48.547Z,20.59
2018-06-02T05:30:16.792Z,20.65
2018-06-02T05:32:44.490Z,20.73
2018-06-02T05:35:12.065Z,20.79
2018-06-02T05:37:39.719Z,20.85
2018-06-02T05:40:07.270Z,20.93
2018-06-02T05:42:34.843Z,21.02
2018-06-02T05:45:02.623Z,21.06
2018-06-02T05:47:30.163Z,21.16
2018-06-02T05:49:57.708Z,21.26
2018-06-02T05:52:25.295Z,21.38
2018-06-02T05:54:53.723Z,21.48
2018-06-02T05:57:22.184Z,21.59
2018-06-02T05:59:49.777Z,21.73
2018-06-02T06:02:17.377Z,21.84
2018-06-02T06:04:44.977Z,22.00
2018-06-02T06:07:13.331Z,22.16
2018-06-02T06:09:41.537Z,22.27
2018-06-02T06:12:09.095Z,22.37
2018-06-02T06:14:37.141Z,22.50
2018-06-02T06:17:04.766Z,22.57
2018-06-02T06:19:33.207Z,22.64
2018-06-02T06:22:01.872Z,22.77
2018-06-02T06:24:29.415Z,22.90
2018-06-02T06:26:56.977Z,23.01
2018-06-02T06:29:26.049Z,23.14
2018-06-02T06:31:53.615Z,23.27
2018-06-02T06:34:22.388Z,23.29
2018-06-02T06:36:49.948Z,23.34
2018-06-02T06:39:17.543Z,23.42
2018-06-02T06:41:45.256Z,23.44
2018-06-02T06:44:12.845Z,23.52
2018-06-02T06:46:40.542Z,23.69
2018-06-02T06:49:08.227Z,23.85
2018-06-02T06:51:35.760Z,24.00
2018-06-02T06:54:03.378Z,24.07
2018-06-02T06:56:31.614Z,24.07
2018-06-02T06:58:59.896Z,24.19
2018-06-02T07:01:27.462Z,24.35
2018-06-02T07:03:55.010Z,24.49
2018-06-02T07:06:23.081Z,24.61
2018-06-02T07:08:51.264Z,24.72
2018-06-02T07:11:18.823Z,24.78
2018-06-02T07:13:46.453Z,24.79
2018-06-02T07:16:14.831Z,24.86
2018-06-02T07:18:42.368Z,25.03
2018-06-02T07:21:10.491Z,25.20
2018-06-02T07:23:38.665Z,25.37
2018-06-02T07:26:06.229Z,25.42
2018-06-02T07:28:34.634Z,25.42
2018-06-02T07:31:02.339Z,25.48
2018-06-02T07:33:29.896Z,25.50
2018-06-02T07:35:57.464Z,25.61
2018-06-02T07:38:25.029Z,25.72
2018-06-02T07:40:52.711Z,25.88
2018-06-02T07:43:20.373Z,26.04
2018-06-02T07:45:48.063Z,26.20
2018-06-02T07:48:15.672Z,26.33
2018-06-02T07:50:43.385Z,26.46
2018-06-02T07:53:10.973Z,26.57
2018-06-02T07:55:39.378Z,26.52
2018-06-02T07:58:08.399Z,26.53
2018-06-02T08:00:35.990Z,26.53
2018-06-02T08:03:03.712Z,26.58
2018-06-02T08:05:32.081Z,26.68
2018-06-02T08:08:00.527Z,26.74
2018-06-02T08:10:28.083Z,26.89
2018-06-02T08:12:55.701Z,26.97
2018-06-02T08:15:23.911Z,27.01
2018-06-02T08:17:51.462Z,27.10
2018-06-02T08:20:20.020Z,27.17
2018-06-02T08:22:48.482Z,27.25
2018-06-02T08:25:16.160Z,27.34
2018-06-02T08:27:43.691Z,27.41
2018-06-02T08:30:12.005Z,27.44
2018-06-02T08:32:39.547Z,27.52
2018-06-02T08:35:07.112Z,27.66
2018-06-02T08:37:34.692Z,27.80
2018-06-02T08:40:02.467Z,27.89
2018-06-02T08:42:30.054Z,27.86
2018-06-02T08:44:58.016Z,27.87
2018-06-02T08:47:25.573Z,27.90
2018-06-02T08:49:53.135Z,28.02
2018-06-02T08:52:20.715Z,28.12
2018-06-02T08:54:48.965Z,28.25
2018-06-02T08:57:18.602Z,28.35
2018-06-02T08:59:46.260Z,28.44
2018-06-02T09:02:13.838Z,28.44
2018-06-02T09:04:41.438Z,28.38
2018-06-02T09:07:09.701Z,28.39
2018-06-02T09:09:38.294Z,28.45
2018-06-02T09:12:05.836Z,28.51
2018-06-02T09:14:34.244Z,28.56
2018-06-02T09:17:02.044Z,28.60
2018-06-02T09:19:30.104Z,28.55
2018-06-02T09:21:58.083Z,28.55
2018-06-02T09:24:25.615Z,28.52
2018-06-02T09:26:53.160Z,28.55
2018-06-02T09:29:21.223Z,28.60
2018-06-02T09:31:48.828Z,28.65
2018-06-02T09:34:16.566Z,28.68
2018-06-02T09:36:44.172Z,28.69
2018-06-02T09:39:11.973Z,28.75
2018-06-02T09:41:39.542Z,28.89
2018-06-02T09:44:07.217Z,29.05
2018-06-02T09:46:34.804Z,29.10
2018-06-02T09:49:02.453Z,29.08
2018-06-02T09:51:30.050Z,29.08
2018-06-02T09:53:57.622Z,29.13
2018-06-02T09:56:26.071Z,29.07
2018-06-02T09:58:54.133Z,29.08
2018-06-02T10:01:21.729Z,29.23
2018-06-02T10:03:49.276Z,29.32
2018-06-02T10:06:17.762Z,29.47
2018-06-02T10:08:45.806Z,29.57
2018-06-02T10:11:13.547Z,29.67
2018-06-02T10:13:41.082Z,29.72
2018-06-02T10:16:09.272Z,29.76
2018-06-02T10:18:36.824Z,29.72
2018-06-02T10:21:04.703Z,29.79
2018-06-02T10:23:32.951Z,29.85
2018-06-02T10:26:00.487Z,29.95
2018-06-02T10:28:28.074Z,29.94
2018-06-02T10:30:56.530Z,29.96
2018-06-02T10:33:24.084Z,29.95
2018-06-02T10:35:51.604Z,29.90
2018-06-02T10:38:19.206Z,29.99
2018-06-02T10:40:46.885Z,30.05
2018-06-02T10:43:14.446Z,29.97
2018-06-02T10:45:42.031Z,29.98
2018-06-02T10:48:09.589Z,29.93
2018-06-02T10:50:37.147Z,29.93
2018-06-02T10:53:04.752Z,29.96
2018-06-02T10:55:33.166Z,30.02
2018-06-02T10:58:01.405Z,30.00
2018-06-02T11:00:29.040Z,29.92
2018-06-02T11:02:56.586Z,29.87
2018-06-02T11:05:24.925Z,29.90
2018-06-02T11:07:53.028Z,29.95
2018-06-02T11:10:20.628Z,29.98
2018-06-02T11:12:48.201Z,29.98
2018-06-02T11:15:16.881Z,30.03
2018-06-02T11:17:44.445Z,30.02
2018-06-02T11:20:12.653Z,30.05
2018-06-02T11:22:40.705Z,30.04
2018-06-02T11:25:08.276Z,30.08
2018-06-02T11:27:35.836Z,30.25
2018-06-02T11:30:04.103Z,30.30
2018-06-02T11:32:31.662Z,30.36
2018-06-02T11:34:59.219Z,30.39
2018-06-02T11:37:26.818Z,30.31
2018-06-02T11:39:54.465Z,30.25
2018-06-02T11:42:22.180Z,30.26
2018-06-02T11:44:49.771Z,30.23
2018-06-02T11:47:17.468Z,30.24
2018-06-02T11:49:45.040Z,30.27
2018-06-02T11:52:12.617Z,30.40
2018-06-02T11:54:41.353Z,30.39
2018-06-02T11:57:09.555Z,30.48
2018-06-02T11:59:37.813Z,30.53
2018-06-02T12:02:05.437Z,30.48
2018-06-02T12:04:33.076Z,30.53
2018-06-02T12:07:01.059Z,30.51
2018-06-02T12:09:29.015Z,30.51
2018-06-02T12:11:56.592Z,30.47
2018-06-02T12:14:24.144Z,30.48
2018-06-02T12:16:52.387Z,30.55
2018-06-02T12:19:19.924Z,30.60
2018-06-02T12:21:48.347Z,30.63
2018-06-02T12:24:16.016Z,30.58
2018-06-02T12:26:43.607Z,30.59
2018-06-02T12:29:11.787Z,30.62
2018-06-02T12:31:39.390Z,30.69
2018-06-02T12:34:06.952Z,30.69
2018-06-02T12:36:34.519Z,30.72
2018-06-02T12:39:02.180Z,30.78
2018-06-02T12:41:29.750Z,30.80
2018-06-02T12:43:57.367Z,30.81
2018-06-02T12:46:24.996Z,30.80
2018-06-02T12:48:52.556Z,30.86
2018-06-02T12:51:20.155Z,30.86
2018-06-02T12:53:47.890Z,30.87
2018-06-02T12:56:16.711Z,30.83
2018-06-02T12:58:44.947Z,30.90
2018-06-02T13:01:12.506Z,31.03
2018-06-02T13:03:40.100Z,31.01
2018-06-02T13:06:08.456Z,31.01
2018-06-02T13:08:36.794Z,31.03
2018-06-02T13:11:04.354Z,31.01
2018-06-02T13:13:31.946Z,31.08
2018-06-02T13:16:00.244Z,31.20
2018-06-02T13:18:27.802Z,31.29
2018-06-02T13:20:55.993Z,31.35
2018-06-02T13:23:24.149Z,31.37
2018-06-02T13:25:51.737Z,31.36
2018-06-02T13:28:19.302Z,31.41
2018-06-02T13:30:47.594Z,31.35
2018-06-02T13:33:15.152Z,31.35
2018-06-02T13:35:42.773Z,31.38
2018-06-02T13:38:10.358Z,31.42
2018-06-02T13:40:37.922Z,31.52
2018-06-02T13:43:05.512Z,31.48
2018-06-02T13:45:33.362Z,31.40
2018-06-02T13:48:00.920Z,31.29
2018-06-02T13:50:28.468Z,31.30
2018-06-02T13:52:56.095Z,31.32
2018-06-02T13:55:24.581Z,31.29
2018-06-02T13:57:53.232Z,31.24
2018-06-02T14:00:20.788Z,31.18
2018-06-02T14:02:48.341Z,31.19
2018-06-02T14:05:16.663Z,31.25
2018-06-02T14:07:44.214Z,31.33
2018-06-02T14:10:12.450Z,31.43
2018-06-02T14:12:40.016Z,31.43
2018-06-02T14:15:08.245Z,31.54
2018-06-02T14:17:35.795Z,31.59
2018-06-02T14:20:03.955Z,31.51
2018-06-02T14:22:32.145Z,31.46
2018-06-02T14:24:59.701Z,31.33
2018-06-02T14:27:27.252Z,31.27
2018-06-02T14:29:55.567Z,31.29
2018-06-02T14:32:23.143Z,31.30
2018-06-02T14:34:50.938Z,31.25
2018-06-02T14:37:18.519Z,31.18
2018-06-02T14:39:46.239Z,31.13
2018-06-02T14:42:13.786Z,31.12
2018-06-02T14:44:41.513Z,31.13
2018-06-02T14:47:09.063Z,31.08
2018-06-02T14:49:36.619Z,31.12
2018-06-02T14:52:04.236Z,31.12
2018-06-02T14:54:31.797Z,31.16
2018-06-02T14:57:00.017Z,31.15
2018-06-02T14:59:28.314Z,31.18
2018-06-02T15:01:55.923Z,31.13
2018-06-02T15:04:23.469Z,31.13
2018-06-02T15:06:51.521Z,31.18
2018-06-02T15:09:19.987Z,31.16
2018-06-02T15:11:47.610Z,31.09
2018-06-02T15:14:15.156Z,31.02
2018-06-02T15:16:43.601Z,30.96
2018-06-02T15:19:11.179Z,30.92
2018-06-02T15:21:39.463Z,31.00
2018-06-02T15:24:07.096Z,31.30
2018-06-02T15:26:34.648Z,31.71
2018-06-02T15:29:03.141Z,32.31
2018-06-02T15:31:30.677Z,32.88
2018-06-02T15:33:58.239Z,33.60
2018-06-02T15:36:25.802Z,34.24
2018-06-02T15:38:53.337Z,34.65
2018-06-02T15:41:20.897Z,35.08
2018-06-02T15:43:48.504Z,35.30
2018-06-02T15:46:16.261Z,35.68
2018-06-02T15:48:43.799Z,35.94
2018-06-02T15:51:11.413Z,36.09
2018-06-02T15:53:39.279Z,36.25
2018-06-02T15:56:07.431Z,36.55
2018-06-02T15:58:35.717Z,36.67
2018-06-02T16:01:03.383Z,36.66
2018-06-02T16:03:30.985Z,36.84
2018-06-02T16:05:59.374Z,37.06
2018-06-02T16:08:27.725Z,37.16
2018-06-02T16:10:55.298Z,37.32
2018-06-02T16:13:22.857Z,36.99
2018-06-02T16:15:50.985Z,36.90
2018-06-02T16:18:18.536Z,36.59
2018-06-02T16:20:48.099Z,36.36
2018-06-02T16:23:16.552Z,35.98
2018-06-02T16:25:44.106Z,35.75
2018-06-02T16:28:11.640Z,35.69
2018-06-02T16:30:39.612Z,35.62
2018-06-02T16:33:07.160Z,35.32
2018-06-02T16:35:34.811Z,34.98
2018-06-02T16:38:02.431Z,34.65
2018-06-02T16:40:30.135Z,34.37
2018-06-02T16:42:57.670Z,34.17
2018-06-02T16:45:25.493Z,34.15
2018-06-02T16:47:53.042Z,34.02
2018-06-02T16:50:20.586Z,33.95
2018-06-02T16:52:48.160Z,34.13
2018-06-02T16:55:16.564Z,34.18
2018-06-02T16:57:45.111Z,34.45
2018-06-02T17:00:12.649Z,34.76
2018-06-02T17:02:40.209Z,35.22
2018-06-02T17:05:08.578Z,35.58
2018-06-02T17:07:36.136Z,35.77
2018-06-02T17:10:05.166Z,36.00
2018-06-02T17:12:32.737Z,36.08
2018-06-02T17:15:01.060Z,36.10
2018-06-02T17:17:28.765Z,36.16
2018-06-02T17:19:56.798Z,36.10
2018-06-02T17:22:25.225Z,36.12
2018-06-02T17:24:52.784Z,36.21
2018-06-02T17:27:20.389Z,36.31
2018-06-02T17:29:48.728Z,36.27
2018-06-02T17:32:16.348Z,36.14
2018-06-02T17:34:43.900Z,35.98
2018-06-02T17:37:11.501Z,35.88
2018-06-02T17:39:39.072Z,35.93
2018-06-02T17:42:06.775Z,36.02
2018-06-02T17:44:34.513Z,35.94
2018-06-02T17:47:02.187Z,35.81
2018-06-02T17:49:29.782Z,35.69
2018-06-02T17:51:57.343Z,35.60
2018-06-02T17:54:25.003Z,35.63
2018-06-02T17:56:53.211Z,35.59
2018-06-02T17:59:21.679Z,35.60
2018-06-02T18:01:49.232Z,35.68
2018-06-02T18:04:16.787Z,35.82
2018-06-02T18:06:45.155Z,35.92
2018-06-02T18:09:13.209Z,35.99
2018-06-02T18:11:40.750Z,35.97
2018-06-02T18:14:08.328Z,35.99
2018-06-02T18:16:37.803Z,35.84
2018-06-02T18:19:05.356Z,35.56
2018-06-02T18:21:33.696Z,35.29
2018-06-02T18:24:01.265Z,35.14
2018-06-02T18:26:28.877Z,35.12
2018-06-02T18:28:57.065Z,35.00
2018-06-02T18:31:24.636Z,34.93
2018-06-02T18:33:52.164Z,34.78
2018-06-02T18:36:19.733Z,34.30
2018-06-02T18:38:47.460Z,33.75
2018-06-02T18:41:15.008Z,33.15
2018-06-02T18:43:42.803Z,32.66
2018-06-02T18:46:10.370Z,32.23
2018-06-02T18:48:37.905Z,31.84
2018-06-02T18:51:05.494Z,31.39
2018-06-02T18:53:33.113Z,30.98
2018-06-02T18:56:01.488Z,30.61
2018-06-02T18:58:29.760Z,30.28
2018-06-02T19:00:57.411Z,30.00
2018-06-02T19:03:24.937Z,29.70
2018-06-02T19:05:53.215Z,29.37
2018-06-02T19:08:21.480Z,29.11
2018-06-02T19:10:49.047Z,28.87
2018-06-02T19:13:16.626Z,28.63
2018-06-02T19:15:45.237Z,28.38
2018-06-02T19:18:12.839Z,28.15
2018-06-02T19:20:41.056Z,27.94
2018-06-02T19:23:09.293Z,27.71
2018-06-02T19:25:36.979Z,27.53
2018-06-02T19:28:04.578Z,27.37
2018-06-02T19:30:32.700Z,27.23
2018-06-02T19:33:00.271Z,27.06
2018-06-02T19:35:27.872Z,26.91
2018-06-02T19:37:55.627Z,26.76
2018-06-02T19:40:23.210Z,26.60
2018-06-02T19:42:50.814Z,26.43
2018-06-02T19:45:18.542Z,26.27
2018-06-02T19:47:46.209Z,26.13
2018-06-02T19:50:13.755Z,25.95
2018-06-02T19:52:41.371Z,25.79
2018-06-02T19:55:09.686Z,25.63
2018-06-02T19:57:37.827Z,25.49
2018-06-02T20:00:05.429Z,25.39
2018-06-02T20:02:33.034Z,25.30
2018-06-02T20:05:01.496Z,25.18
2018-06-02T20:07:29.055Z,25.09
2018-06-02T20:09:57.245Z,24.98
2018-06-02T20:12:24.786Z,24.86
2018-06-02T20:14:53.326Z,24.75
2018-06-02T20:17:20.907Z,24.64
2018-06-02T20:19:49.113Z,24.55
2018-06-02T20:22:17.552Z,24.46
2018-06-02T20:24:45.087Z,24.38
2018-06-02T20:27:12.623Z,24.26
2018-06-02T20:29:40.957Z,24.18
2018-06-02T20:32:08.525Z,24.09
2018-06-02T20:34:36.077Z,24.00
2018-06-02T20:37:03.756Z,23.92
2018-06-02T20:39:31.297Z,23.84
2018-06-02T20:41:58.879Z,23.76
2018-06-02T20:44:26.471Z,23.68
2018-06-02T20:46:54.026Z,23.58
2018-06-02T20:49:21.611Z,23.50
2018-06-02T20:51:49.187Z,23.42
2018-06-02T20:54:16.865Z,23.34
2018-06-02T20:56:45.459Z,23.25
2018-06-02T20:59:13.786Z,23.20
2018-06-02T21:01:41.359Z,23.16
2018-06-02T21:04:08.933Z,23.11
2018-06-02T21:06:37.071Z,23.07
2018-06-02T21:09:06.662Z,23.02
2018-06-02T21:11:34.226Z,22.93
2018-06-02T21:14:01.822Z,22.89
2018-06-02T21:16:29.927Z,22.83
2018-06-02T21:18:57.529Z,22.76
2018-06-02T21:21:25.594Z,22.67
2018-06-02T21:23:53.872Z,22.57
2018-06-02T21:26:21.458Z,22.48
2018-06-02T21:28:49.715Z,22.43
2018-06-02T21:31:17.477Z,22.39
2018-06-02T21:33:45.056Z,22.37
2018-06-02T21:36:12.673Z,22.35
2018-06-02T21:38:40.229Z,22.35
2018-06-02T21:41:07.795Z,22.30
2018-06-02T21:43:35.377Z,22.26
2018-06-02T21:46:03.107Z,22.21
2018-06-02T21:48:30.687Z,22.17
2018-06-02T21:50:58.277Z,22.13
2018-06-02T21:53:26.014Z,22.08
2018-06-02T21:55:54.034Z,22.05
2018-06-02T21:58:22.565Z,21.99
2018-06-02T22:00:50.130Z,21.95
2018-06-02T22:03:17.820Z,21.88
2018-06-02T22:05:46.165Z,21.80
2018-06-02T22:08:14.444Z,21.73
2018-06-02T22:10:42.006Z,21.66
2018-06-02T22:13:09.619Z,21.65
2018-06-02T22:15:37.986Z,21.65
2018-06-02T22:18:05.586Z,21.63
2018-06-02T22:20:33.961Z,21.62
2018-06-02T22:23:01.916Z,21.60
2018-06-02T22:25:29.478Z,21.57
2018-06-02T22:27:57.022Z,21.56
2018-06-02T22:30:25.352Z,21.52
2018-06-02T22:32:52.897Z,21.50
2018-06-02T22:35:20.446Z,21.49
2018-06-02T22:37:48.023Z,21.48
2018-06-02T22:40:15.599Z,21.46
2018-06-02T22:42:43.136Z,21.46
2018-06-02T22:45:10.754Z,21.46
2018-06-02T22:47:38.304Z,21.45
2018-06-02T22:50:05.919Z,21.45
2018-06-02T22:52:33.609Z,21.43
2018-06-02T22:55:01.877Z,21.40
2018-06-02T22:57:30.235Z,21.38
2018-06-02T22:59:57.883Z,21.33
2018-06-02T23:02:25.458Z,21.31
2018-06-02T23:04:53.473Z,21.28
2018-06-02T23:07:21.644Z,21.24
2018-06-02T23:09:50.196Z,21.20
2018-06-02T23:12:17.795Z,21.15
2018-06-02T23:14:46.212Z,21.11
2018-06-02T23:17:13.809Z,21.05
2018-06-02T23:19:42.283Z,20.99
2018-06-02T23:22:31.078Z,20.94
2018-06-02T23:24:58.613Z,20.89
2018-06-02T23:27:26.176Z,20.86
2018-06-02T23:29:54.736Z,20.86
2018-06-02T23:32:22.277Z,20.86
2018-06-02T23:34:49.822Z,20.86
2018-06-02T23:37:17.562Z,20.87
2018-06-02T23:39:45.111Z,20.86
2018-06-02T23:42:12.651Z,20.85
2018-06-02T23:44:40.235Z,20.85
2018-06-02T23:47:07.774Z,20.86
2018-06-02T23:49:35.335Z,20.89
2018-06-02T23:52:02.991Z,20.90
2018-06-02T23:54:30.610Z,20.87
2018-06-02T23:56:58.980Z,20.85
2018-06-02T23:59:27.135Z,20.84
